Time;durP1;ratioP1;P1;durP2;ratioP2;P2;SDS_P1;SDS_P2;PMS_P1;PMS_P2;Temp;Humidity;BMP_temperature;BMP_pressure;BME280_temperature;BME280_humidity;BME280_pressure;Samples;Min_cycle;Max_cycle;Signal;HPM_P1;HPM_P2
2023/04/24 00:00:33;;;;;;;2.03;1.47;;;9.70;99.90;;;;;;5036608;28;20188;-52
2023/04/24 00:02:59;;;;;;;7.67;1.50;;;9.60;99.90;;;;;;5036466;28;20204;-50
2023/04/24 00:05:25;;;;;;;2.20;1.30;;;9.60;99.90;;;;;;5036484;28;20212;-49
2023/04/24 00:07:54;;;;;;;3.47;1.40;;;9.50;99.90;;;;;;5036674;28;20181;-52
2023/04/24 00:10:20;;;;;;;1.97;1.33;;;9.50;99.90;;;;;;5036695;28;20195;-51
2023/04/24 00:12:45;;;;;;;2.90;1.43;;;9.50;99.90;;;;;;5036301;28;20197;-51
2023/04/24 00:15:11;;;;;;;1.80;1.60;;;9.50;99.90;;;;;;5036296;28;20183;-50
2023/04/24 00:17:37;;;;;;;2.33;1.60;;;9.60;99.90;;;;;;5036197;28;20181;-51
2023/04/24 00:20:04;;;;;;;2.37;1.43;;;9.50;99.90;;;;;;5036218;28;20576;-51
2023/04/24 00:22:30;;;;;;;1.87;1.27;;;9.50;99.90;;;;;;5036403;28;20212;-50
2023/04/24 00:24:56;;;;;;;3.07;1.70;;;9.60;99.90;;;;;;5036382;28;20179;-51
2023/04/24 00:27:22;;;;;;;1.60;1.50;;;9.60;99.90;;;;;;5036439;28;20519;-49
2023/04/24 00:29:48;;;;;;;3.87;2.20;;;9.60;99.90;;;;;;5036007;28;20195;-50
2023/04/24 00:32:14;;;;;;;4.17;1.80;;;9.60;99.90;;;;;;5035926;28;20205;-52
2023/04/24 00:34:40;;;;;;;2.73;1.90;;;9.60;99.90;;;;;;5036247;28;20648;-50
2023/04/24 00:37:05;;;;;;;4.30;2.20;;;9.60;99.90;;;;;;5036093;28;20172;-52
2023/04/24 00:39:31;;;;;;;2.93;1.57;;;9.50;99.90;;;;;;5035781;28;20208;-52
2023/04/24 00:41:57;;;;;;;3.97;2.53;;;9.50;99.90;;;;;;5035737;28;20605;-51
2023/04/24 00:44:23;;;;;;;4.23;3.03;;;9.50;99.90;;;;;;5035750;28;20222;-51
2023/04/24 00:46:54;;;;;;;2.97;2.40;;;9.40;99.90;;;;;;5036250;28;20181;-52
2023/04/24 00:49:21;;;;;;;6.07;2.77;;;9.40;99.90;;;;;;5035600;28;20211;-52
2023/04/24 00:51:47;;;;;;;5.33;3.10;;;9.40;99.90;;;;;;5035822;28;20632;-52
2023/04/24 00:54:13;;;;;;;5.13;3.33;;;9.40;99.90;;;;;;5035860;28;20220;-51
2023/04/24 00:56:40;;;;;;;5.50;3.33;;;9.30;99.90;;;;;;5034943;28;20191;-51
2023/04/24 00:59:06;;;;;;;3.37;2.63;;;9.30;99.90;;;;;;5035458;28;20618;-51
2023/04/24 01:01:32;;;;;;;5.10;3.43;;;9.30;99.90;;;;;;5035605;28;20183;-50
2023/04/24 01:03:58;;;;;;;5.90;3.37;;;9.30;99.90;;;;;;5035682;28;20184;-51
2023/04/24 01:06:28;;;;;;;5.30;3.47;;;9.30;99.90;;;;;;5035328;28;20767;-51
2023/04/24 01:08:55;;;;;;;8.37;4.27;;;9.30;99.90;;;;;;5035567;28;20189;-50
2023/04/24 01:11:21;;;;;;;8.60;4.43;;;9.30;99.90;;;;;;5035148;28;20199;-50
2023/04/24 01:13:47;;;;;;;6.70;4.43;;;9.30;99.90;;;;;;5035176;28;20191;-50
2023/04/24 01:16:15;;;;;;;11.57;4.70;;;9.30;99.90;;;;;;5035395;28;20211;-52
2023/04/24 01:18:41;;;;;;;6.10;4.27;;;9.30;99.90;;;;;;5035349;28;20218;-51
2023/04/24 01:21:09;;;;;;;6.73;4.23;;;9.30;99.90;;;;;;5035401;28;20173;-51
2023/04/24 01:23:34;;;;;;;10.03;4.97;;;9.30;99.90;;;;;;5035004;28;20200;-50
2023/04/24 01:26:00;;;;;;;7.87;5.30;;;9.30;99.90;;;;;;5034899;28;20600;-50
2023/04/24 01:28:26;;;;;;;9.93;4.70;;;9.30;99.90;;;;;;5034942;28;20195;-50
2023/04/24 01:30:53;;;;;;;7.77;5.03;;;9.20;99.90;;;;;;5034895;28;20206;-50
2023/04/24 01:33:20;;;;;;;7.60;5.53;;;9.30;99.90;;;;;;5034765;28;20207;-50
2023/04/24 01:35:46;;;;;;;7.50;5.90;;;9.30;99.90;;;;;;5035054;28;20648;-50
2023/04/24 01:38:12;;;;;;;10.70;5.90;;;9.30;99.90;;;;;;5034646;28;20247;-50
2023/04/24 01:40:38;;;;;;;9.67;5.57;;;9.30;99.90;;;;;;5034720;28;20272;-49
2023/04/24 01:43:03;;;;;;;12.77;6.37;;;9.30;99.90;;;;;;5034517;28;20237;-50
2023/04/24 01:45:29;;;;;;;9.13;5.63;;;9.30;99.90;;;;;;5034555;28;20191;-49
2023/04/24 01:47:55;;;;;;;9.70;6.23;;;9.30;99.90;;;;;;5034617;28;20592;-50
2023/04/24 01:50:21;;;;;;;13.33;7.43;;;9.30;99.90;;;;;;5034782;28;20255;-51
2023/04/24 01:52:46;;;;;;;11.67;6.37;;;9.30;99.90;;;;;;5034487;28;20565;-50
2023/04/24 01:55:12;;;;;;;10.13;6.33;;;9.30;99.90;;;;;;5034667;28;20183;-50
2023/04/24 01:57:38;;;;;;;11.10;6.33;;;9.30;99.90;;;;;;5034592;28;20184;-51
2023/04/24 02:00:06;;;;;;;10.17;6.63;;;9.30;99.90;;;;;;5034375;28;20182;-48
2023/04/24 02:02:32;;;;;;;12.03;6.47;;;9.30;99.90;;;;;;5034247;28;20227;-51
2023/04/24 02:04:57;;;;;;;9.13;5.53;;;9.30;99.90;;;;;;5034228;28;20213;-53
2023/04/24 02:07:23;;;;;;;9.70;7.00;;;9.30;99.90;;;;;;5034418;28;20652;-50
2023/04/24 02:09:49;;;;;;;11.90;6.83;;;9.30;99.90;;;;;;5033887;28;20174;-49
2023/04/24 02:12:17;;;;;;;12.20;6.53;;;9.30;99.90;;;;;;5034758;28;20690;-49
2023/04/24 02:14:43;;;;;;;11.80;7.53;;;9.30;99.90;;;;;;5034075;28;20173;-51
2023/04/24 02:17:08;;;;;;;12.23;6.70;;;9.30;99.90;;;;;;5034050;28;20526;-50
2023/04/24 02:19:34;;;;;;;9.60;6.10;;;9.30;99.90;;;;;;5034118;28;20211;-49
2023/04/24 02:22:00;;;;;;;8.33;5.30;;;9.30;99.90;;;;;;5034127;28;20599;-48
2023/04/24 02:24:25;;;;;;;9.50;5.67;;;9.30;99.90;;;;;;5033926;28;20204;-51
2023/04/24 02:26:51;;;;;;;10.27;5.97;;;9.30;99.90;;;;;;5033797;28;20206;-51
2023/04/24 02:29:16;;;;;;;10.73;6.63;;;9.30;99.90;;;;;;5033806;28;20190;-52
2023/04/24 02:31:42;;;;;;;14.20;7.40;;;9.30;99.90;;;;;;5034007;28;20199;-49
2023/04/24 02:34:07;;;;;;;13.33;7.07;;;9.40;99.90;;;;;;5033702;28;20177;-51
2023/04/24 02:36:33;;;;;;;7.70;5.17;;;9.30;99.90;;;;;;5034127;28;20183;-51
2023/04/24 02:38:59;;;;;;;10.27;6.43;;;9.30;99.90;;;;;;5033586;28;20204;-51
2023/04/24 02:41:25;;;;;;;9.30;5.77;;;9.40;99.90;;;;;;5033803;28;20179;-51
2023/04/24 02:43:50;;;;;;;9.70;5.33;;;9.30;99.90;;;;;;5033596;28;20663;-49
2023/04/24 02:46:16;;;;;;;12.83;7.10;;;9.30;99.90;;;;;;5033567;28;20183;-50
2023/04/24 02:48:41;;;;;;;10.27;5.67;;;9.30;99.90;;;;;;5033845;28;20224;-51
2023/04/24 02:51:07;;;;;;;11.90;6.83;;;9.30;99.90;;;;;;5033511;28;20176;-51
2023/04/24 02:53:32;;;;;;;9.53;5.63;;;9.40;99.90;;;;;;5033372;28;20200;-50
2023/04/24 02:55:58;;;;;;;12.77;5.70;;;9.40;99.90;;;;;;5033473;28;20175;-51
2023/04/24 02:58:24;;;;;;;8.60;6.10;;;9.30;99.90;;;;;;5033641;28;20214;-51
2023/04/24 03:00:54;;;;;;;13.83;6.40;;;9.30;99.90;;;;;;5033347;28;20172;-49
2023/04/24 03:03:19;;;;;;;14.60;6.30;;;9.30;99.90;;;;;;5033534;28;20212;-52
2023/04/24 03:05:45;;;;;;;9.13;5.57;;;9.30;99.90;;;;;;5033333;28;20722;-49
2023/04/24 03:08:11;;;;;;;11.57;6.50;;;9.30;99.90;;;;;;5033584;28;20236;-50
2023/04/24 03:10:36;;;;;;;10.43;6.00;;;9.30;99.90;;;;;;5033447;28;20192;-50
2023/04/24 03:13:02;;;;;;;14.00;7.47;;;9.30;99.90;;;;;;5033200;28;20214;-51
2023/04/24 03:15:27;;;;;;;11.73;7.00;;;9.30;99.90;;;;;;5033496;28;20176;-50
2023/04/24 03:17:53;;;;;;;12.93;7.30;;;9.30;99.90;;;;;;5033382;28;20184;-49
2023/04/24 03:20:19;;;;;;;15.03;7.13;;;9.30;99.90;;;;;;5034232;28;20164;-49
2023/04/24 03:22:44;;;;;;;7.03;4.70;;;9.30;99.90;;;;;;5037286;28;20195;-52
2023/04/24 03:25:10;;;;;;;10.70;5.67;;;9.30;99.90;;;;;;5037244;28;20179;-51
2023/04/24 03:27:35;;;;;;;10.87;6.00;;;9.30;99.90;;;;;;5037518;28;20191;-50
2023/04/24 03:30:02;;;;;;;8.37;5.77;;;9.30;99.90;;;;;;5037430;28;20230;-52
2023/04/24 03:32:27;;;;;;;9.10;6.60;;;9.30;99.90;;;;;;5037066;28;20192;-52
2023/04/24 03:34:53;;;;;;;10.77;6.43;;;9.30;99.90;;;;;;5037318;28;20245;-51
2023/04/24 03:37:18;;;;;;;9.10;6.70;;;9.30;99.90;;;;;;5037261;28;20659;-51
2023/04/24 03:39:44;;;;;;;10.27;5.17;;;9.30;99.90;;;;;;5036909;28;20285;-50
2023/04/24 03:42:10;;;;;;;7.40;5.37;;;9.20;99.90;;;;;;5037105;28;20195;-49
2023/04/24 03:44:36;;;;;;;10.17;6.33;;;9.20;99.90;;;;;;5037307;28;20177;-48
2023/04/24 03:47:01;;;;;;;12.30;6.10;;;9.20;99.90;;;;;;5036826;28;20199;-50
2023/04/24 03:49:27;;;;;;;9.97;6.50;;;9.10;99.90;;;;;;5036875;28;20204;-50
2023/04/24 03:51:52;;;;;;;11.70;5.97;;;9.10;99.90;;;;;;5036730;28;20610;-50
2023/04/24 03:54:19;;;;;;;10.00;5.80;;;9.10;99.90;;;;;;5036774;28;20540;-48
2023/04/24 03:56:45;;;;;;;10.53;7.10;;;9.10;99.90;;;;;;5036960;28;20180;-49
2023/04/24 03:59:10;;;;;;;7.03;4.77;;;9.10;99.90;;;;;;5036857;28;20614;-49
2023/04/24 04:01:37;;;;;;;11.03;6.13;;;9.10;99.90;;;;;;5036540;28;20182;-49
2023/04/24 04:04:06;;;;;;;9.87;5.53;;;9.10;99.90;;;;;;5036572;28;20190;-50
2023/04/24 04:06:32;;;;;;;13.40;5.37;;;9.10;99.90;;;;;;5036496;28;20214;-51
2023/04/24 04:08:58;;;;;;;10.47;6.17;;;9.10;99.90;;;;;;5036720;28;20185;-50
2023/04/24 04:11:24;;;;;;;10.10;5.40;;;9.00;99.90;;;;;;5036569;28;20198;-50
2023/04/24 04:13:50;;;;;;;8.13;5.30;;;8.90;99.90;;;;;;5036622;28;20576;-51
2023/04/24 04:16:18;;;;;;;7.97;5.00;;;9.00;99.90;;;;;;5036844;28;20183;-50
2023/04/24 04:18:44;;;;;;;12.13;5.40;;;8.90;99.90;;;;;;5036210;28;20571;-51
2023/04/24 04:21:10;;;;;;;8.47;5.60;;;8.90;99.90;;;;;;5036479;28;20233;-49
2023/04/24 04:23:36;;;;;;;8.57;5.40;;;8.90;99.90;;;;;;5036118;28;20199;-50
2023/04/24 04:26:03;;;;;;;9.20;5.23;;;8.90;99.90;;;;;;5036045;28;20574;-49
2023/04/24 04:28:30;;;;;;;6.97;4.73;;;8.90;99.90;;;;;;5036364;28;20192;-51
2023/04/24 04:30:57;;;;;;;11.83;5.57;;;8.90;99.90;;;;;;5035983;28;20644;-50
2023/04/24 04:33:26;;;;;;;7.60;4.97;;;8.90;99.90;;;;;;5035931;28;20546;-50
2023/04/24 04:35:52;;;;;;;6.00;3.97;;;8.90;99.90;;;;;;5035916;28;20635;-51
2023/04/24 04:38:20;;;;;;;7.30;5.50;;;8.90;99.90;;;;;;5035845;28;20568;-50
2023/04/24 04:40:46;;;;;;;6.83;4.30;;;8.90;99.90;;;;;;5035937;28;20195;-50
2023/04/24 04:43:13;;;;;;;9.13;5.13;;;8.90;99.90;;;;;;5036084;28;20555;-50
2023/04/24 04:45:40;;;;;;;7.53;4.83;;;8.90;99.90;;;;;;5036090;28;20174;-44
2023/04/24 04:48:07;;;;;;;7.17;4.93;;;8.90;99.90;;;;;;5035811;28;20190;-46
2023/04/24 04:50:33;;;;;;;6.40;4.97;;;8.90;99.90;;;;;;5035937;28;20655;-45
2023/04/24 04:52:59;;;;;;;8.10;4.90;;;8.90;99.90;;;;;;5035594;28;20285;-46
2023/04/24 04:55:25;;;;;;;7.90;5.17;;;8.90;99.90;;;;;;5035520;28;20184;-46
2023/04/24 04:57:51;;;;;;;5.83;4.33;;;8.90;99.90;;;;;;5035662;28;20316;-45
2023/04/24 05:00:17;;;;;;;6.67;4.27;;;8.80;99.90;;;;;;5035568;28;20177;-46
2023/04/24 05:02:43;;;;;;;7.07;5.70;;;8.80;99.90;;;;;;5035336;28;20561;-46
2023/04/24 05:05:09;;;;;;;6.47;5.27;;;8.80;99.90;;;;;;5035422;28;20171;-46
2023/04/24 05:07:34;;;;;;;7.53;4.80;;;8.90;99.90;;;;;;5035589;28;20586;-46
2023/04/24 05:10:00;;;;;;;4.57;4.10;;;8.80;99.90;;;;;;5035340;28;20260;-46
2023/04/24 05:12:26;;;;;;;6.70;4.97;;;8.80;99.90;;;;;;5035469;28;20208;-47
2023/04/24 05:14:52;;;;;;;6.13;4.37;;;8.80;99.90;;;;;;5035562;28;20179;-45
2023/04/24 05:17:18;;;;;;;6.17;4.47;;;8.80;99.90;;;;;;5035470;28;20214;-44
2023/04/24 05:19:43;;;;;;;5.23;3.60;;;8.80;99.90;;;;;;5035059;28;20211;-46
2023/04/24 05:22:11;;;;;;;6.50;4.07;;;8.80;99.90;;;;;;5035290;28;20193;-45
2023/04/24 05:24:36;;;;;;;4.43;3.23;;;8.80;99.90;;;;;;5035849;28;20219;-45
2023/04/24 05:27:04;;;;;;;6.07;3.97;;;8.80;99.90;;;;;;5035395;28;20171;-45
2023/04/24 05:29:31;;;;;;;5.97;3.90;;;8.80;99.90;;;;;;5035155;28;20186;-45
2023/04/24 05:31:57;;;;;;;4.47;3.60;;;8.80;99.90;;;;;;5035176;28;20663;-45
2023/04/24 05:34:22;;;;;;;5.67;3.07;;;8.80;99.90;;;;;;5035431;28;20177;-44
2023/04/24 05:36:48;;;;;;;4.63;3.47;;;8.80;99.90;;;;;;5035513;28;20178;-48
2023/04/24 05:39:15;;;;;;;2.93;2.50;;;8.80;99.90;;;;;;5034940;28;20695;-46
2023/04/24 05:41:40;;;;;;;6.80;3.80;;;8.90;99.90;;;;;;5035251;28;20206;-45
2023/04/24 05:44:06;;;;;;;7.17;4.10;;;8.90;99.90;;;;;;5034429;28;20168;-44
2023/04/24 05:46:31;;;;;;;5.47;3.60;;;8.90;99.90;;;;;;5035177;28;20176;-47
2023/04/24 05:48:57;;;;;;;7.90;3.80;;;8.90;99.90;;;;;;5035688;28;20237;-45
2023/04/24 05:51:23;;;;;;;4.23;3.43;;;8.90;99.90;;;;;;5035128;28;20698;-43
2023/04/24 05:53:49;;;;;;;3.50;2.50;;;8.80;99.90;;;;;;5035092;28;20258;-44
2023/04/24 05:56:15;;;;;;;3.77;3.10;;;8.80;99.90;;;;;;5035018;28;20604;-45
2023/04/24 05:58:41;;;;;;;5.60;3.10;;;8.70;99.90;;;;;;5034645;28;20215;-44
2023/04/24 06:01:06;;;;;;;4.80;3.43;;;8.60;99.90;;;;;;5034692;28;20183;-44
2023/04/24 06:03:32;;;;;;;3.17;2.77;;;8.60;99.90;;;;;;5034304;28;20242;-43
2023/04/24 06:05:58;;;;;;;4.33;2.20;;;8.60;99.90;;;;;;5034240;28;20179;-45
2023/04/24 06:08:23;;;;;;;4.50;2.57;;;8.50;99.90;;;;;;5034212;28;20173;-43
2023/04/24 06:10:49;;;;;;;3.57;2.63;;;8.50;99.90;;;;;;5034445;28;20191;-46
2023/04/24 06:13:15;;;;;;;3.27;2.30;;;8.50;99.90;;;;;;5035125;28;20211;-44
2023/04/24 06:15:41;;;;;;;6.37;3.20;;;8.40;99.90;;;;;;5034087;28;20191;-43
2023/04/24 06:18:07;;;;;;;2.73;1.70;;;8.40;99.90;;;;;;5033969;28;20683;-47
2023/04/24 06:20:33;;;;;;;4.13;2.50;;;8.40;99.90;;;;;;5033995;28;20237;-43
2023/04/24 06:22:58;;;;;;;4.20;2.30;;;8.40;99.90;;;;;;5033883;28;20203;-45
2023/04/24 06:25:28;;;;;;;2.43;1.60;;;8.40;99.90;;;;;;5034225;28;20176;-44
2023/04/24 06:27:55;;;;;;;5.43;2.63;;;8.40;99.90;;;;;;5034117;28;20646;-43
2023/04/24 06:30:21;;;;;;;1.53;1.30;;;8.40;99.90;;;;;;5033910;28;20174;-44
2023/04/24 06:32:46;;;;;;;2.63;2.27;;;8.50;99.90;;;;;;5034807;28;20736;-45
2023/04/24 06:35:12;;;;;;;4.03;2.03;;;8.50;99.90;;;;;;5033729;28;20233;-44
2023/04/24 06:37:42;;;;;;;4.10;1.93;;;8.50;99.90;;;;;;5033764;28;20265;-44
2023/04/24 06:40:08;;;;;;;3.43;1.90;;;8.40;99.90;;;;;;5033746;28;20191;-43
2023/04/24 06:42:34;;;;;;;3.20;1.80;;;8.40;99.90;;;;;;5034200;28;20615;-45
2023/04/24 06:45:01;;;;;;;3.80;1.60;;;8.40;99.90;;;;;;5033817;28;20624;-45
2023/04/24 06:47:26;;;;;;;1.83;1.30;;;8.40;99.90;;;;;;5033505;28;20204;-45
2023/04/24 06:49:52;;;;;;;1.77;1.07;;;8.40;99.90;;;;;;5034143;28;20219;-45
2023/04/24 06:52:18;;;;;;;3.07;1.60;;;8.40;99.90;;;;;;5033533;28;20289;-44
2023/04/24 06:54:44;;;;;;;1.67;1.43;;;8.30;99.90;;;;;;5033075;28;20260;-43
2023/04/24 06:57:10;;;;;;;3.70;1.70;;;8.30;99.90;;;;;;5034031;28;20179;-45
2023/04/24 06:59:36;;;;;;;1.43;1.33;;;8.30;99.90;;;;;;5033767;28;20207;-43
2023/04/24 07:02:02;;;;;;;5.03;2.50;;;8.20;99.90;;;;;;5033527;28;20220;-43
2023/04/24 07:04:28;;;;;;;1.90;1.30;;;8.20;99.90;;;;;;5033800;28;20199;-43
2023/04/24 07:06:57;;;;;;;3.50;1.70;;;8.20;99.90;;;;;;5033859;28;20198;-45
2023/04/24 07:09:25;;;;;;;3.20;2.10;;;8.20;99.90;;;;;;5033575;28;20655;-44
2023/04/24 07:11:54;;;;;;;1.97;1.70;;;8.10;99.90;;;;;;5034025;28;20320;-44
2023/04/24 07:14:20;;;;;;;3.60;1.50;;;8.10;99.90;;;;;;5034697;28;20191;-44
2023/04/24 07:16:46;;;;;;;2.50;1.93;;;8.20;99.90;;;;;;5034621;28;20182;-45
2023/04/24 07:19:12;;;;;;;3.10;2.30;;;8.10;99.90;;;;;;5034416;28;20214;-46
2023/04/24 07:21:38;;;;;;;2.30;1.73;;;8.10;99.90;;;;;;5035829;28;20297;-44
2023/04/24 07:24:04;;;;;;;2.20;1.90;;;8.10;99.90;;;;;;5033369;28;20632;-43
2023/04/24 07:26:30;;;;;;;1.40;1.30;;;8.00;99.90;;;;;;5033454;28;20186;-46
2023/04/24 07:28:56;;;;;;;2.43;1.40;;;7.90;99.90;;;;;;5033814;28;20639;-47
2023/04/24 07:31:21;;;;;;;4.87;2.23;;;7.80;99.90;;;;;;5033472;28;20241;-43
2023/04/24 07:33:47;;;;;;;9.07;3.80;;;7.80;99.90;;;;;;5033326;28;20183;-45
2023/04/24 07:36:16;;;;;;;5.07;2.40;;;7.80;99.90;;;;;;5033188;28;20184;-45
2023/04/24 07:38:42;;;;;;;2.70;1.93;;;7.80;99.90;;;;;;5033257;28;20224;-45
2023/04/24 07:41:08;;;;;;;1.57;1.27;;;7.70;99.90;;;;;;5033121;28;20233;-44
2023/04/24 07:43:34;;;;;;;1.23;1.07;;;7.70;99.90;;;;;;5033018;28;20668;-45
2023/04/24 07:46:00;;;;;;;4.70;1.90;;;7.70;99.90;;;;;;5033344;28;20694;-45
2023/04/24 07:48:26;;;;;;;2.83;1.90;;;7.60;99.90;;;;;;5032932;28;20278;-44
2023/04/24 07:50:52;;;;;;;4.27;2.03;;;7.60;99.90;;;;;;5033258;28;20219;-47
2023/04/24 07:53:17;;;;;;;1.87;1.60;;;7.60;99.90;;;;;;5033169;28;20288;-45
2023/04/24 07:55:43;;;;;;;2.40;1.50;;;7.50;99.90;;;;;;5033112;28;20658;-45
2023/04/24 07:58:09;;;;;;;1.13;1.00;;;7.50;99.90;;;;;;5033079;28;20211;-46
2023/04/24 08:00:34;;;;;;;2.30;1.60;;;7.50;99.90;;;;;;5032959;28;20168;-44
2023/04/24 08:03:00;;;;;;;1.90;1.50;;;7.50;99.90;;;;;;5032858;28;20204;-45
2023/04/24 08:05:27;;;;;;;1.90;1.70;;;7.50;99.90;;;;;;5032549;28;20190;-46
2023/04/24 08:07:53;;;;;;;2.20;1.40;;;7.50;99.90;;;;;;5036220;28;20186;-46
2023/04/24 08:10:18;;;;;;;1.40;1.30;;;7.40;99.90;;;;;;5036539;28;20528;-45
2023/04/24 08:12:44;;;;;;;1.90;1.47;;;7.50;99.90;;;;;;5036481;28;20200;-45
2023/04/24 08:15:10;;;;;;;3.07;1.63;;;7.40;99.90;;;;;;5035749;28;20189;-47
2023/04/24 08:17:36;;;;;;;1.60;1.27;;;7.50;99.90;;;;;;5035447;28;20177;-45
2023/04/24 08:20:03;;;;;;;1.67;1.40;;;7.40;99.90;;;;;;5036544;28;20252;-44
2023/04/24 08:22:29;;;;;;;2.67;1.47;;;7.50;99.90;;;;;;5036169;28;20702;-45
2023/04/24 08:24:56;;;;;;;1.63;1.40;;;7.40;99.90;;;;;;5036232;28;20184;-47
2023/04/24 08:27:23;;;;;;;4.07;1.90;;;7.50;99.90;;;;;;5036247;28;20218;-44
2023/04/24 08:29:49;;;;;;;2.33;1.47;;;7.40;99.90;;;;;;5036303;28;20186;-44
2023/04/24 08:32:17;;;;;;;2.10;1.37;;;7.40;99.90;;;;;;5036159;28;20281;-46
2023/04/24 08:34:42;;;;;;;4.70;2.00;;;7.50;99.90;;;;;;5036241;28;20182;-44
2023/04/24 08:37:08;;;;;;;4.00;2.60;;;7.50;99.90;;;;;;5036685;28;20556;-45
2023/04/24 08:39:33;;;;;;;3.17;2.23;;;7.50;99.90;;;;;;5035988;28;20231;-45
2023/04/24 08:42:05;;;;;;;4.17;2.20;;;7.50;99.90;;;;;;5035918;28;20207;-44
2023/04/24 08:44:32;;;;;;;2.83;2.10;;;7.50;99.90;;;;;;5036455;28;20158;-44
2023/04/24 08:46:58;;;;;;;4.90;3.00;;;7.60;99.90;;;;;;5018265;28;20181;-44
2023/04/24 08:49:25;;;;;;;4.30;2.33;;;7.60;99.90;;;;;;5036436;28;20205;-43
2023/04/24 08:51:52;;;;;;;3.90;2.70;;;7.60;99.90;;;;;;5036515;28;20233;-44
2023/04/24 08:54:18;;;;;;;6.57;3.30;;;7.70;99.90;;;;;;5036273;28;20181;-44
2023/04/24 08:56:46;;;;;;;5.37;3.10;;;7.70;99.90;;;;;;5036739;28;20186;-44
2023/04/24 08:59:13;;;;;;;6.13;2.80;;;7.70;99.90;;;;;;5036081;28;20216;-45
2023/04/24 09:01:39;;;;;;;3.87;3.00;;;7.80;99.90;;;;;;5035767;28;20238;-45
2023/04/24 09:04:09;;;;;;;4.27;2.70;;;7.80;99.90;;;;;;5036450;28;20174;-44
2023/04/24 09:06:35;;;;;;;4.97;3.10;;;7.90;99.90;;;;;;5036768;28;20268;-45
2023/04/24 09:09:03;;;;;;;6.50;3.10;;;7.90;99.90;;;;;;5037192;28;20182;-45
2023/04/24 09:11:30;;;;;;;8.10;3.67;;;8.00;99.90;;;;;;5035322;28;20194;-45
2023/04/24 09:13:56;;;;;;;5.83;3.97;;;7.90;99.90;;;;;;5035355;28;20205;-47
2023/04/24 09:16:24;;;;;;;6.33;3.40;;;8.00;99.90;;;;;;5035524;28;20186;-46
2023/04/24 09:18:50;;;;;;;4.53;2.40;;;8.10;99.90;;;;;;5034184;28;20680;-46
2023/04/24 09:21:15;;;;;;;6.10;3.50;;;8.10;99.90;;;;;;5035307;28;20180;-46
2023/04/24 09:23:41;;;;;;;5.10;3.00;;;8.20;99.90;;;;;;5035406;28;20203;-46
2023/04/24 09:26:09;;;;;;;7.37;4.63;;;8.30;99.90;;;;;;5035483;28;20263;-45
2023/04/24 09:28:36;;;;;;;5.90;3.57;;;8.30;99.90;;;;;;5035484;28;20506;-47
2023/04/24 09:31:18;;;;;;;5.93;3.77;;;8.40;99.90;;;;;;5035143;28;20182;-45
2023/04/24 09:33:59;;;;;;;6.07;3.50;;;8.50;99.90;;;;;;5035169;28;20555;-45
2023/04/24 09:36:28;;;;;;;4.50;2.93;;;8.60;99.90;;;;;;5035185;28;20491;-44
2023/04/24 09:38:57;;;;;;;6.33;3.40;;;8.60;99.90;;;;;;5035064;28;20231;-46
2023/04/24 09:41:23;;;;;;;3.97;2.77;;;8.70;99.90;;;;;;5034796;28;20203;-46
2023/04/24 09:43:49;;;;;;;8.67;2.50;;;8.80;99.90;;;;;;5034736;28;20211;-46
2023/04/24 09:46:18;;;;;;;5.23;2.20;;;9.00;99.90;;;;;;5035008;28;20171;-44
2023/04/24 09:48:43;;;;;;;3.50;2.07;;;9.00;99.90;;;;;;5034754;28;20203;-46
2023/04/24 09:51:11;;;;;;;2.83;1.80;;;9.20;99.90;;;;;;5034563;28;20191;-46
2023/04/24 09:53:36;;;;;;;3.97;2.43;;;9.20;99.90;;;;;;5034484;28;20217;-46
2023/04/24 09:56:06;;;;;;;5.43;2.73;;;9.30;99.90;;;;;;5034772;28;20187;-46
2023/04/24 09:58:32;;;;;;;4.23;2.17;;;9.30;99.90;;;;;;5034933;28;20202;-48
2023/04/24 10:00:57;;;;;;;3.30;2.00;;;9.40;99.90;;;;;;5034768;28;20165;-46
2023/04/24 10:03:29;;;;;;;7.17;3.07;;;9.40;99.90;;;;;;5034358;28;20554;-46
2023/04/24 10:05:59;;;;;;;4.77;2.93;;;9.50;99.90;;;;;;5017097;28;20179;-46
2023/04/24 10:08:26;;;;;;;5.43;1.90;;;9.60;99.90;;;;;;5034282;28;20181;-46
2023/04/24 10:10:52;;;;;;;5.27;2.70;;;9.70;99.90;;;;;;5034272;28;20178;-46
2023/04/24 10:13:18;;;;;;;8.23;3.50;;;9.70;99.90;;;;;;5034192;28;20204;-46
2023/04/24 10:15:44;;;;;;;6.97;3.60;;;9.70;99.90;;;;;;5034325;28;20178;-45
2023/04/24 10:18:11;;;;;;;5.43;3.53;;;9.90;99.90;;;;;;5034322;28;20657;-48
2023/04/24 10:20:38;;;;;;;7.87;3.40;;;10.00;99.90;;;;;;5034340;28;20201;-46
2023/04/24 10:23:04;;;;;;;7.10;3.53;;;10.10;99.90;;;;;;5034126;28;20238;-47
2023/04/24 10:25:31;;;;;;;5.87;3.13;;;10.30;99.90;;;;;;5034205;28;20185;-47
2023/04/24 10:27:59;;;;;;;8.10;3.27;;;10.40;99.90;;;;;;5033922;28;20172;-48
2023/04/24 10:30:36;;;;;;;6.97;3.43;;;10.50;99.90;;;;;;5033755;28;20272;-46
2023/04/24 10:33:07;;;;;;;8.43;2.93;;;10.50;99.90;;;;;;5033934;28;20196;-47
2023/04/24 10:35:38;;;;;;;5.40;2.17;;;10.40;99.90;;;;;;5034024;28;20176;-46
2023/04/24 10:38:06;;;;;;;5.27;2.97;;;10.40;99.90;;;;;;5033980;28;20197;-46
2023/04/24 10:40:34;;;;;;;6.97;2.77;;;10.40;99.90;;;;;;5034201;28;20187;-47
2023/04/24 10:43:02;;;;;;;6.07;2.63;;;10.40;99.90;;;;;;5033858;28;20204;-46
2023/04/24 10:45:28;;;;;;;4.77;2.43;;;10.40;99.90;;;;;;5033607;28;20181;-46
2023/04/24 10:47:58;;;;;;;4.87;2.40;;;10.50;99.90;;;;;;5033966;28;20218;-47
2023/04/24 10:50:27;;;;;;;5.10;2.13;;;10.70;99.90;;;;;;5034659;28;20501;-47
2023/04/24 10:52:54;;;;;;;5.40;2.57;;;11.00;99.90;;;;;;5033453;28;20212;-47
2023/04/24 10:55:39;;;;;;;7.63;2.27;;;11.00;99.90;;;;;;5033757;28;20196;-46
2023/04/24 10:58:05;;;;;;;3.90;2.10;;;11.00;99.90;;;;;;5033454;28;20195;-47
2023/04/24 11:00:30;;;;;;;9.50;2.33;;;10.90;99.90;;;;;;5033410;28;20181;-45
2023/04/24 11:02:57;;;;;;;7.97;2.60;;;10.80;99.90;;;;;;5033398;28;20201;-46
2023/04/24 11:05:55;;;;;;;6.40;2.70;;;10.80;99.90;;;;;;5015951;28;20548;-45
2023/04/24 11:08:36;;;;;;;10.20;2.47;;;10.80;99.90;;;;;;5033280;28;20261;-45
2023/04/24 11:11:10;;;;;;;9.00;3.20;;;10.90;99.90;;;;;;5033659;28;20173;-44
2023/04/24 11:13:54;;;;;;;7.63;3.07;;;10.80;99.90;;;;;;5033278;28;20738;-45
2023/04/24 11:16:23;;;;;;;7.03;2.73;;;10.70;99.90;;;;;;5033234;28;20668;-47
2023/04/24 11:18:59;;;;;;;8.23;3.10;;;10.70;99.90;;;;;;5033165;28;20208;-45
2023/04/24 11:21:26;;;;;;;5.80;2.87;;;10.90;99.90;;;;;;5033437;28;20165;-48
2023/04/24 11:23:51;;;;;;;9.10;3.40;;;11.00;99.90;;;;;;5033234;28;20169;-45
2023/04/24 11:26:30;;;;;;;7.53;2.97;;;11.10;99.90;;;;;;5033147;28;20591;-47
2023/04/24 11:29:07;;;;;;;7.60;3.10;;;11.10;99.90;;;;;;5033220;28;20176;-45
2023/04/24 11:31:41;;;;;;;7.23;3.30;;;11.30;99.90;;;;;;5033336;28;20522;-46
2023/04/24 11:34:12;;;;;;;10.20;3.30;;;11.20;99.90;;;;;;5033293;28;20193;-51
2023/04/24 11:36:39;;;;;;;7.77;3.40;;;11.10;99.90;;;;;;5033329;28;20188;-52
2023/04/24 11:39:05;;;;;;;8.47;3.53;;;11.00;99.90;;;;;;5033282;28;20208;-53
2023/04/24 11:41:31;;;;;;;12.03;3.30;;;11.00;99.90;;;;;;5035076;28;20192;-51
2023/04/24 11:43:57;;;;;;;9.87;3.43;;;10.90;99.90;;;;;;5037192;28;20235;-51
2023/04/24 11:46:26;;;;;;;13.93;3.10;;;10.90;99.90;;;;;;5038437;28;20177;-52
2023/04/24 11:48:52;;;;;;;9.53;3.87;;;10.90;99.90;;;;;;5038125;28;20193;-51
2023/04/24 11:51:17;;;;;;;9.83;3.40;;;10.90;99.90;;;;;;5036777;28;20186;-51
2023/04/24 11:53:43;;;;;;;13.47;3.20;;;11.00;99.90;;;;;;5036825;28;20276;-53
2023/04/24 11:56:09;;;;;;;8.93;3.37;;;11.10;99.90;;;;;;5036747;28;20547;-50
2023/04/24 11:58:36;;;;;;;10.67;3.47;;;11.30;99.90;;;;;;5036649;28;20205;-50
2023/04/24 12:01:02;;;;;;;11.20;3.47;;;11.40;99.90;;;;;;5018924;28;20268;-52
2023/04/24 12:03:27;;;;;;;12.07;4.10;;;11.40;99.90;;;;;;5036616;28;20207;-53
2023/04/24 12:06:06;;;;;;;11.87;3.10;;;11.40;99.90;;;;;;5036820;28;20177;-51
2023/04/24 12:08:32;;;;;;;6.53;2.93;;;11.40;99.90;;;;;;5036482;28;20208;-50
2023/04/24 12:10:59;;;;;;;6.83;3.03;;;11.30;99.90;;;;;;5036731;28;20211;-52
2023/04/24 12:13:25;;;;;;;8.90;3.00;;;11.20;99.90;;;;;;5036348;28;20246;-53
2023/04/24 12:15:51;;;;;;;7.90;2.90;;;11.20;99.90;;;;;;5036733;28;20161;-53
2023/04/24 12:18:17;;;;;;;7.27;2.90;;;11.30;99.90;;;;;;5036312;28;20573;-52
2023/04/24 12:20:42;;;;;;;5.97;2.50;;;11.40;99.90;;;;;;5036598;28;20188;-51
2023/04/24 12:23:08;;;;;;;8.97;2.90;;;11.50;99.90;;;;;;5036188;28;20219;-51
2023/04/24 12:25:34;;;;;;;8.00;2.73;;;11.60;99.90;;;;;;5036521;28;20185;-52
2023/04/24 12:28:03;;;;;;;5.60;2.33;;;11.80;99.90;;;;;;5019188;28;20168;-51
2023/04/24 12:30:30;;;;;;;12.47;3.43;;;11.90;99.90;;;;;;5036214;28;20256;-51
2023/04/24 12:32:58;;;;;;;6.90;2.60;;;12.00;99.90;;;;;;5036338;28;20714;-51
2023/04/24 12:35:25;;;;;;;7.97;2.53;;;12.00;99.90;;;;;;5035985;28;20188;-52
2023/04/24 12:37:51;;;;;;;5.03;2.47;;;11.90;99.90;;;;;;5036306;28;20208;-52
2023/04/24 12:40:18;;;;;;;6.97;2.70;;;11.80;99.90;;;;;;5035868;28;20225;-51
2023/04/24 12:42:48;;;;;;;6.70;2.43;;;11.80;99.90;;;;;;5018172;28;20225;-53
2023/04/24 12:45:15;;;;;;;4.53;1.97;;;11.80;99.90;;;;;;5035855;28;20729;-53
2023/04/24 12:47:42;;;;;;;7.50;2.60;;;11.80;99.90;;;;;;5035939;28;20208;-51
2023/04/24 12:50:09;;;;;;;5.93;2.77;;;11.80;99.90;;;;;;5035769;28;20187;-52